createdAt,value
2024-02-27T00:00:00.927Z,0.00
2024-02-27T00:01:00.939Z,0.00
2024-02-27T00:02:00.892Z,0.00
2024-02-27T00:03:00.884Z,0.00
2024-02-27T00:04:21.864Z,0.00
2024-02-27T00:05:00.839Z,0.00
2024-02-27T00:06:00.913Z,0.00
2024-02-27T00:07:00.880Z,0.00
2024-02-27T00:08:00.858Z,0.00
2024-02-27T00:09:00.843Z,0.00
2024-02-27T00:10:21.787Z,0.00
2024-02-27T00:11:00.787Z,0.00
2024-02-27T00:12:00.785Z,0.00
2024-02-27T00:13:00.757Z,0.00
2024-02-27T00:14:00.803Z,0.00
2024-02-27T00:15:00.757Z,0.00
2024-02-27T00:16:21.714Z,0.00
2024-02-27T00:17:00.715Z,0.00
2024-02-27T00:18:00.723Z,0.00
2024-02-27T00:19:00.776Z,0.00
2024-02-27T00:20:00.755Z,0.00
2024-02-27T00:21:00.681Z,0.00
2024-02-27T00:22:21.653Z,0.00
2024-02-27T00:23:00.620Z,0.00
2024-02-27T00:24:00.689Z,0.00
2024-02-27T00:25:00.600Z,0.00
2024-02-27T00:26:00.588Z,0.00
2024-02-27T00:27:00.624Z,0.00
2024-02-27T00:28:21.572Z,0.00
2024-02-27T00:29:00.554Z,0.00
2024-02-27T00:30:00.777Z,0.00
2024-02-27T00:31:00.547Z,0.00
2024-02-27T00:32:00.598Z,0.00
2024-02-27T00:33:00.606Z,0.00
2024-02-27T00:34:21.603Z,0.00
2024-02-27T00:35:00.606Z,0.00
2024-02-27T00:36:00.566Z,0.00
2024-02-27T00:37:00.524Z,0.00
2024-02-27T00:38:00.477Z,0.00
2024-02-27T00:39:00.479Z,0.00
2024-02-27T00:40:21.420Z,0.00
2024-02-27T00:41:00.407Z,0.00
2024-02-27T00:42:00.432Z,0.00
2024-02-27T00:43:00.377Z,0.00
2024-02-27T00:44:00.393Z,0.00
2024-02-27T00:45:00.458Z,0.00
2024-02-27T00:46:21.401Z,0.00
2024-02-27T00:47:00.353Z,0.00
2024-02-27T00:48:00.407Z,0.00
2024-02-27T00:49:00.362Z,0.00
2024-02-27T00:50:00.300Z,0.00
2024-02-27T00:51:00.313Z,0.00
2024-02-27T00:52:21.279Z,0.00
2024-02-27T00:53:00.255Z,0.00
2024-02-27T00:54:00.299Z,0.00
2024-02-27T00:55:00.249Z,0.00
2024-02-27T00:56:00.232Z,0.00
2024-02-27T00:57:00.250Z,0.00
2024-02-27T00:58:21.211Z,0.00
2024-02-27T00:59:00.204Z,0.00
2024-02-27T01:00:00.255Z,0.00
2024-02-27T01:01:00.218Z,0.00
2024-02-27T01:02:00.323Z,0.00
2024-02-27T01:03:00.175Z,0.00
2024-02-27T01:04:21.143Z,0.00
2024-02-27T01:05:00.330Z,0.00
2024-02-27T01:06:00.293Z,0.00
2024-02-27T01:07:00.206Z,0.00
2024-02-27T01:08:00.135Z,0.00
2024-02-27T01:09:00.096Z,0.00
2024-02-27T01:10:21.061Z,0.00
2024-02-27T01:11:00.048Z,0.00
2024-02-27T01:12:00.100Z,0.00
2024-02-27T01:13:00.024Z,0.00
2024-02-27T01:14:00.007Z,0.00
2024-02-27T01:15:00.023Z,0.00
2024-02-27T01:16:20.989Z,0.00
2024-02-27T01:16:59.975Z,0.00
2024-02-27T01:18:00.154Z,0.00
2024-02-27T01:19:00.093Z,0.00
2024-02-27T01:19:59.996Z,0.00
2024-02-27T01:20:59.930Z,0.00
2024-02-27T01:22:20.915Z,0.00
2024-02-27T01:22:59.921Z,0.00
2024-02-27T01:23:59.899Z,0.00
2024-02-27T01:24:59.872Z,0.00
2024-02-27T01:25:59.862Z,0.00
2024-02-27T01:26:59.904Z,0.00
2024-02-27T01:28:20.846Z,0.00
2024-02-27T01:28:59.833Z,0.00
2024-02-27T01:29:59.873Z,0.00
2024-02-27T01:30:59.815Z,0.00
2024-02-27T01:31:59.787Z,0.00
2024-02-27T01:32:59.890Z,0.00
2024-02-27T01:34:20.881Z,0.00
2024-02-27T01:35:00.010Z,0.00
2024-02-27T01:35:59.895Z,0.00
2024-02-27T01:36:59.726Z,0.00
2024-02-27T01:37:59.724Z,0.00
2024-02-27T01:38:59.725Z,0.00
2024-02-27T01:40:20.699Z,0.00
2024-02-27T01:40:59.709Z,0.00
2024-02-27T01:41:59.716Z,0.00
2024-02-27T01:42:59.668Z,0.00
2024-02-27T01:43:59.656Z,0.00
2024-02-27T01:44:59.679Z,0.00
2024-02-27T01:46:20.632Z,0.00
2024-02-27T01:46:59.859Z,0.00
2024-02-27T01:47:59.666Z,0.00
2024-02-27T01:48:59.774Z,0.00
2024-02-27T01:49:59.621Z,0.00
2024-02-27T01:50:59.614Z,0.00
2024-02-27T01:52:20.545Z,0.00
2024-02-27T01:52:59.564Z,0.00
2024-02-27T01:53:59.625Z,0.00
2024-02-27T01:54:59.501Z,0.00
2024-02-27T01:55:59.482Z,0.00
2024-02-27T01:56:59.572Z,0.00
2024-02-27T01:58:20.467Z,0.00
2024-02-27T01:58:59.462Z,0.00
2024-02-27T01:59:59.481Z,0.00
2024-02-27T02:00:59.526Z,0.00
2024-02-27T02:01:59.411Z,0.00
2024-02-27T02:02:59.501Z,0.00
2024-02-27T02:04:20.640Z,0.00
2024-02-27T02:04:59.394Z,0.00
2024-02-27T02:05:59.481Z,0.00
2024-02-27T02:06:59.376Z,0.00
2024-02-27T02:07:59.339Z,0.00
2024-02-27T02:08:59.343Z,0.00
2024-02-27T02:10:20.317Z,0.00
2024-02-27T02:10:59.324Z,0.00
2024-02-27T02:11:59.320Z,0.00
2024-02-27T02:12:59.281Z,0.00
2024-02-27T02:13:59.301Z,0.00
2024-02-27T02:14:59.313Z,0.00
2024-02-27T02:16:20.305Z,0.00
2024-02-27T02:16:59.264Z,0.00
2024-02-27T02:17:59.265Z,0.00
2024-02-27T02:18:59.306Z,0.00
2024-02-27T02:19:59.204Z,0.00
2024-02-27T02:20:59.237Z,0.00
2024-02-27T02:22:20.221Z,0.00
2024-02-27T02:22:59.153Z,0.00
2024-02-27T02:23:59.152Z,0.00
2024-02-27T02:24:59.134Z,0.00
2024-02-27T02:25:59.133Z,0.00
2024-02-27T02:26:59.187Z,0.00
2024-02-27T02:28:20.095Z,0.00
2024-02-27T02:28:59.091Z,0.00
2024-02-27T02:29:59.073Z,0.00
2024-02-27T02:30:59.049Z,0.00
2024-02-27T02:31:59.043Z,0.00
2024-02-27T02:32:59.111Z,0.00
2024-02-27T02:34:20.093Z,0.00
2024-02-27T02:34:59.088Z,0.00
2024-02-27T02:35:59.018Z,0.00
2024-02-27T02:36:58.979Z,0.00
2024-02-27T02:37:59.050Z,0.00
2024-02-27T02:38:58.986Z,0.00
2024-02-27T02:40:19.940Z,0.00
2024-02-27T02:40:58.932Z,0.00
2024-02-27T02:41:58.988Z,0.00
2024-02-27T02:42:58.896Z,0.00
2024-02-27T02:43:58.896Z,0.00
2024-02-27T02:44:58.895Z,0.00
2024-02-27T02:46:19.874Z,0.00
2024-02-27T02:46:58.851Z,0.00
2024-02-27T02:47:59.003Z,0.00
2024-02-27T02:48:59.532Z,0.00
2024-02-27T02:49:58.886Z,0.00
2024-02-27T02:50:58.843Z,0.00
2024-02-27T02:52:19.793Z,0.00
2024-02-27T02:52:58.837Z,0.00
2024-02-27T02:53:58.834Z,0.00
2024-02-27T02:54:58.757Z,0.00
2024-02-27T02:55:58.760Z,0.00
2024-02-27T02:56:58.756Z,0.00
2024-02-27T02:58:19.728Z,0.00
2024-02-27T02:58:58.700Z,0.00
2024-02-27T02:59:58.738Z,0.00
2024-02-27T03:00:58.758Z,0.00
2024-02-27T03:01:58.668Z,0.00
2024-02-27T03:02:58.657Z,0.00
2024-02-27T03:04:19.708Z,0.00
2024-02-27T03:04:58.688Z,0.00
2024-02-27T03:05:58.725Z,0.00
2024-02-27T03:06:58.786Z,0.00
2024-02-27T03:07:58.598Z,0.00
2024-02-27T03:08:58.615Z,0.00
2024-02-27T03:10:19.612Z,0.00
2024-02-27T03:10:58.602Z,0.00
2024-02-27T03:11:58.599Z,0.00
2024-02-27T03:12:58.541Z,0.00
2024-02-27T03:13:58.526Z,0.00
2024-02-27T03:14:58.535Z,0.00
2024-02-27T03:16:19.505Z,0.00
2024-02-27T03:16:58.476Z,0.00
2024-02-27T03:17:58.631Z,0.00
2024-02-27T03:18:58.567Z,0.00
2024-02-27T03:19:58.553Z,0.00
2024-02-27T03:20:58.438Z,0.00
2024-02-27T03:22:19.454Z,0.00
2024-02-27T03:22:58.396Z,0.00
2024-02-27T03:23:58.409Z,0.00
2024-02-27T03:24:58.367Z,0.00
2024-02-27T03:25:58.423Z,0.00
2024-02-27T03:26:58.378Z,0.00
2024-02-27T03:28:19.342Z,0.00
2024-02-27T03:28:58.322Z,0.00
2024-02-27T03:29:58.404Z,0.00
2024-02-27T03:30:58.293Z,0.00
2024-02-27T03:31:58.287Z,0.00
2024-02-27T03:32:58.413Z,0.00
2024-02-27T03:34:19.520Z,0.00
2024-02-27T03:34:58.401Z,0.00
2024-02-27T03:35:58.244Z,0.00
2024-02-27T03:36:58.214Z,0.00
2024-02-27T03:37:58.211Z,0.00
2024-02-27T03:38:58.246Z,0.00
2024-02-27T03:40:19.195Z,0.00
2024-02-27T03:40:58.167Z,0.00
2024-02-27T03:41:58.299Z,0.00
2024-02-27T03:42:58.307Z,0.00
2024-02-27T03:43:58.133Z,0.00
2024-02-27T03:44:58.168Z,0.00
2024-02-27T03:46:19.132Z,0.00
2024-02-27T03:46:58.087Z,0.00
2024-02-27T03:47:58.223Z,0.00
2024-02-27T03:48:58.218Z,0.00
2024-02-27T03:49:58.171Z,0.00
2024-02-27T03:50:58.077Z,0.00
2024-02-27T03:52:19.035Z,0.00
2024-02-27T03:52:58.016Z,0.00
2024-02-27T03:53:58.038Z,0.00
2024-02-27T03:54:57.996Z,0.00
2024-02-27T03:55:57.982Z,0.00
2024-02-27T03:56:57.979Z,0.00
2024-02-27T03:58:19.072Z,0.00
2024-02-27T03:58:57.946Z,0.00
2024-02-27T03:59:57.968Z,0.00
2024-02-27T04:00:58.030Z,0.00
2024-02-27T04:01:57.905Z,0.00
2024-02-27T04:02:57.905Z,0.00
2024-02-27T04:04:19.032Z,0.00
2024-02-27T04:04:57.965Z,0.00
2024-02-27T04:05:57.910Z,0.00
2024-02-27T04:06:57.953Z,0.00
2024-02-27T04:07:57.844Z,0.00
2024-02-27T04:08:57.875Z,0.00
2024-02-27T04:10:18.810Z,0.00
2024-02-27T04:10:57.804Z,0.00
2024-02-27T04:11:57.821Z,0.00
2024-02-27T04:12:57.769Z,0.00
2024-02-27T04:13:57.805Z,0.00
2024-02-27T04:14:57.755Z,0.00
2024-02-27T04:16:18.733Z,0.00
2024-02-27T04:16:57.719Z,0.00
2024-02-27T04:17:57.729Z,0.00
2024-02-27T04:18:57.799Z,0.00
2024-02-27T04:19:57.771Z,0.00
2024-02-27T04:20:57.785Z,0.00
2024-02-27T04:22:18.660Z,0.00
2024-02-27T04:22:57.637Z,0.00
2024-02-27T04:23:57.651Z,0.00
2024-02-27T04:24:57.617Z,0.00
2024-02-27T04:25:57.667Z,0.00
2024-02-27T04:26:57.596Z,0.00
2024-02-27T04:28:18.587Z,0.00
2024-02-27T04:28:57.556Z,0.00
2024-02-27T04:29:57.611Z,0.00
2024-02-27T04:30:57.531Z,0.00
2024-02-27T04:31:57.525Z,0.00
2024-02-27T04:32:57.666Z,0.00
2024-02-27T04:34:18.597Z,0.00
2024-02-27T04:34:57.482Z,0.00
2024-02-27T04:35:57.476Z,0.00
2024-02-27T04:36:57.460Z,0.00
2024-02-27T04:37:57.458Z,0.00
2024-02-27T04:38:57.514Z,0.00
2024-02-27T04:40:18.428Z,0.00
2024-02-27T04:40:57.401Z,0.00
2024-02-27T04:41:57.428Z,0.00
2024-02-27T04:42:57.435Z,0.00
2024-02-27T04:43:57.371Z,0.00
2024-02-27T04:44:57.421Z,0.00
2024-02-27T04:46:18.405Z,0.00
2024-02-27T04:46:57.329Z,0.00
2024-02-27T04:47:57.473Z,0.00
2024-02-27T04:48:57.372Z,0.00
2024-02-27T04:49:57.334Z,0.00
2024-02-27T04:50:57.301Z,0.00
2024-02-27T04:52:18.280Z,0.00
2024-02-27T04:52:57.268Z,0.00
2024-02-27T04:53:57.274Z,0.00
2024-02-27T04:54:57.272Z,0.00
2024-02-27T04:55:57.222Z,0.00
2024-02-27T04:56:57.256Z,0.00
2024-02-27T04:58:18.212Z,0.00
2024-02-27T04:58:57.175Z,0.00
2024-02-27T04:59:57.264Z,0.00
2024-02-27T05:00:57.164Z,0.00
2024-02-27T05:01:57.196Z,0.00
2024-02-27T05:02:57.176Z,0.00
2024-02-27T05:04:18.211Z,0.00
2024-02-27T05:04:57.109Z,0.00
2024-02-27T05:05:57.139Z,0.00
2024-02-27T05:06:57.170Z,0.00
2024-02-27T05:07:57.067Z,0.00
2024-02-27T05:08:57.095Z,0.00
2024-02-27T05:10:18.049Z,0.00
2024-02-27T05:10:57.032Z,0.00
2024-02-27T05:11:57.041Z,0.00
2024-02-27T05:12:57.000Z,0.00
2024-02-27T05:13:56.995Z,0.00
2024-02-27T05:14:56.988Z,0.00
2024-02-27T05:16:17.978Z,0.00
2024-02-27T05:16:56.978Z,0.00
2024-02-27T05:17:57.223Z,0.00
2024-02-27T05:18:57.009Z,0.00
2024-02-27T05:19:56.910Z,0.00
2024-02-27T05:20:56.941Z,0.00
2024-02-27T05:22:17.890Z,0.00
2024-02-27T05:22:56.867Z,0.00
2024-02-27T05:23:56.881Z,0.00
2024-02-27T05:24:56.883Z,0.00
2024-02-27T05:25:56.838Z,0.00
2024-02-27T05:26:56.961Z,0.00
2024-02-27T05:28:17.813Z,0.00
2024-02-27T05:28:56.807Z,0.00
2024-02-27T05:29:56.902Z,0.00
2024-02-27T05:30:56.769Z,0.00
2024-02-27T05:31:56.813Z,0.00
2024-02-27T05:32:56.827Z,4.00
2024-02-27T05:34:17.855Z,4.00
2024-02-27T05:34:56.793Z,4.00
2024-02-27T05:35:56.768Z,4.00
2024-02-27T05:36:56.708Z,4.00
2024-02-27T05:37:56.684Z,8.00
2024-02-27T05:38:56.681Z,4.00
2024-02-27T05:40:17.660Z,8.00
2024-02-27T05:40:56.638Z,8.00
2024-02-27T05:41:56.713Z,8.00
2024-02-27T05:42:56.618Z,12.00
2024-02-27T05:43:56.608Z,12.00
2024-02-27T05:44:56.647Z,16.00
2024-02-27T05:46:17.575Z,20.00
2024-02-27T05:46:56.640Z,24.00
2024-02-27T05:47:56.664Z,28.00
2024-02-27T05:48:56.694Z,32.00
2024-02-27T05:49:56.683Z,32.00
2024-02-27T05:50:56.534Z,40.00
2024-02-27T05:52:17.503Z,48.00
2024-02-27T05:52:56.492Z,48.00
2024-02-27T05:53:56.505Z,56.00
2024-02-27T05:54:56.468Z,64.00
2024-02-27T05:55:56.438Z,72.00
2024-02-27T05:56:56.472Z,76.00
2024-02-27T05:58:17.446Z,84.00
2024-02-27T05:58:56.408Z,92.00
2024-02-27T05:59:56.390Z,104.00
2024-02-27T06:00:56.551Z,112.00
2024-02-27T06:01:56.372Z,120.00
2024-02-27T06:02:56.416Z,136.00
2024-02-27T06:04:17.525Z,148.00
2024-02-27T06:04:56.323Z,156.00
2024-02-27T06:05:56.406Z,176.00
2024-02-27T06:06:56.452Z,192.00
2024-02-27T06:07:56.288Z,200.00
2024-02-27T06:08:56.267Z,204.00
2024-02-27T06:10:17.263Z,204.00
2024-02-27T06:10:56.282Z,224.00
2024-02-27T06:11:58.804Z,232.00
2024-02-27T06:12:56.216Z,248.00
2024-02-27T06:13:56.228Z,248.00
2024-02-27T06:14:56.194Z,260.00
2024-02-27T06:16:17.192Z,280.00
2024-02-27T06:16:56.169Z,296.00
2024-02-27T06:17:56.198Z,300.00
2024-02-27T06:18:56.184Z,324.00
2024-02-27T06:19:56.162Z,344.00
2024-02-27T06:20:56.317Z,336.00
2024-02-27T06:22:17.182Z,336.00
2024-02-27T06:22:56.119Z,352.00
2024-02-27T06:23:56.077Z,344.00
2024-02-27T06:24:56.065Z,376.00
2024-02-27T06:25:56.112Z,360.00
2024-02-27T06:26:56.057Z,352.00
2024-02-27T06:28:17.037Z,360.00
2024-02-27T06:28:56.012Z,384.00
2024-02-27T06:29:55.996Z,372.00
2024-02-27T06:30:56.028Z,384.00
2024-02-27T06:31:56.063Z,396.00
2024-02-27T06:32:56.002Z,388.00
2024-02-27T06:34:17.031Z,428.00
2024-02-27T06:34:56.021Z,408.00
2024-02-27T06:35:55.927Z,416.00
2024-02-27T06:36:55.907Z,460.00
2024-02-27T06:37:55.948Z,464.00
2024-02-27T06:38:55.888Z,468.00
2024-02-27T06:40:16.885Z,460.00
2024-02-27T06:40:55.856Z,452.00
2024-02-27T06:41:55.846Z,436.00
2024-02-27T06:42:55.846Z,444.00
2024-02-27T06:43:55.814Z,472.00
2024-02-27T06:44:55.808Z,480.00
2024-02-27T06:46:16.796Z,500.00
2024-02-27T06:46:55.766Z,480.00
2024-02-27T06:47:55.883Z,528.00
2024-02-27T06:49:03.821Z,560.00
2024-02-27T06:49:55.784Z,544.00
2024-02-27T06:50:55.725Z,560.00
2024-02-27T06:52:16.717Z,560.00
2024-02-27T06:52:55.706Z,604.00
2024-02-27T06:53:55.737Z,596.00
2024-02-27T06:54:55.682Z,600.00
2024-02-27T06:55:55.667Z,612.00
2024-02-27T06:56:55.659Z,608.00
2024-02-27T06:58:16.804Z,636.00
2024-02-27T06:58:55.616Z,668.00
2024-02-27T06:59:55.607Z,696.00
2024-02-27T07:00:55.667Z,720.00
2024-02-27T07:01:55.587Z,768.00
2024-02-27T07:02:55.568Z,724.00
2024-02-27T07:04:16.587Z,768.00
2024-02-27T07:04:55.553Z,820.00
2024-02-27T07:05:55.573Z,836.00
2024-02-27T07:06:55.605Z,868.00
2024-02-27T07:07:55.508Z,888.00
2024-02-27T07:08:55.516Z,956.00
2024-02-27T07:10:16.531Z,992.00
2024-02-27T07:10:55.495Z,1020.00
2024-02-27T07:11:55.454Z,1028.00
2024-02-27T07:12:55.439Z,1120.00
2024-02-27T07:13:55.589Z,1124.00
2024-02-27T07:14:55.452Z,1176.00
2024-02-27T07:16:16.405Z,1196.00
2024-02-27T07:16:55.385Z,1292.00
2024-02-27T07:17:55.455Z,1524.00
2024-02-27T07:18:55.528Z,1444.00
2024-02-27T07:19:55.404Z,1368.00
2024-02-27T07:20:55.330Z,1532.00
2024-02-27T07:22:16.337Z,1616.00
2024-02-27T07:22:55.304Z,1628.00
2024-02-27T07:23:55.296Z,1716.00
2024-02-27T07:24:55.345Z,1556.00
2024-02-27T07:25:55.326Z,1456.00
2024-02-27T07:26:55.266Z,1488.00
2024-02-27T07:28:20.925Z,1628.00
2024-02-27T07:28:55.229Z,1712.00
2024-02-27T07:29:55.221Z,1436.00
2024-02-27T07:30:55.215Z,1548.00
2024-02-27T07:31:55.195Z,1660.00
2024-02-27T07:32:55.229Z,1572.00
2024-02-27T07:34:16.264Z,1548.00
2024-02-27T07:34:55.199Z,1528.00
2024-02-27T07:35:55.141Z,1476.00
2024-02-27T07:36:55.133Z,1352.00
2024-02-27T07:37:55.110Z,1412.00
2024-02-27T07:38:55.105Z,1416.00
2024-02-27T07:40:16.103Z,1308.00
2024-02-27T07:40:55.135Z,1248.00
2024-02-27T07:41:55.137Z,1380.00
2024-02-27T07:42:55.072Z,1432.00
2024-02-27T07:43:55.086Z,1632.00
2024-02-27T07:44:55.044Z,1656.00
2024-02-27T07:46:16.020Z,1604.00
2024-02-27T07:46:54.997Z,1468.00
2024-02-27T07:47:55.032Z,1432.00
2024-02-27T07:48:55.019Z,1540.00
2024-02-27T07:49:55.876Z,1420.00
2024-02-27T07:50:55.586Z,1360.00
2024-02-27T07:52:15.991Z,1332.00
2024-02-27T07:52:54.946Z,1360.00
2024-02-27T07:53:54.925Z,1356.00
2024-02-27T07:54:54.896Z,1284.00
2024-02-27T07:55:54.888Z,1312.00
2024-02-27T07:56:54.891Z,1288.00
2024-02-27T07:58:15.922Z,1284.00
2024-02-27T07:58:54.854Z,1248.00
2024-02-27T07:59:54.838Z,1296.00
2024-02-27T08:00:54.895Z,1236.00
2024-02-27T08:01:54.828Z,1280.00
2024-02-27T08:02:54.856Z,1320.00
2024-02-27T08:04:15.968Z,1496.00
2024-02-27T08:04:54.779Z,1644.00
2024-02-27T08:05:54.808Z,1480.00
2024-02-27T08:06:54.764Z,1288.00
2024-02-27T08:07:54.749Z,1320.00
2024-02-27T08:08:54.801Z,1344.00
2024-02-27T08:10:15.741Z,1396.00
2024-02-27T08:10:54.696Z,1352.00
2024-02-27T08:11:54.697Z,1372.00
2024-02-27T08:12:54.671Z,1376.00
2024-02-27T08:13:54.709Z,1572.00
2024-02-27T08:14:54.647Z,1600.00
2024-02-27T08:16:15.641Z,1436.00
2024-02-27T08:16:54.618Z,1300.00
2024-02-27T08:17:54.644Z,1272.00
2024-02-27T08:18:54.668Z,1328.00
2024-02-27T08:19:54.651Z,1440.00
2024-02-27T08:20:56.183Z,1756.00
2024-02-27T08:22:15.565Z,1820.00
2024-02-27T08:22:54.543Z,1652.00
2024-02-27T08:23:54.541Z,1436.00
2024-02-27T08:24:54.549Z,1460.00
2024-02-27T08:25:54.512Z,1536.00
2024-02-27T08:26:57.103Z,1600.00
2024-02-27T08:28:15.536Z,1656.00
2024-02-27T08:28:54.488Z,1956.00
2024-02-27T08:29:54.536Z,1888.00
2024-02-27T08:30:54.515Z,2060.00
2024-02-27T08:31:54.458Z,2124.00
2024-02-27T08:32:55.584Z,2188.00
2024-02-27T08:34:15.638Z,2176.00
2024-02-27T08:34:54.497Z,2244.00
2024-02-27T08:35:54.379Z,2452.00
2024-02-27T08:36:54.397Z,2472.00
2024-02-27T08:37:54.349Z,2436.00
2024-02-27T08:38:54.355Z,2376.00
2024-02-27T08:40:15.330Z,2348.00
2024-02-27T08:40:54.318Z,2332.00
2024-02-27T08:41:54.308Z,2440.00
2024-02-27T08:42:54.297Z,2304.00
2024-02-27T08:43:54.276Z,2180.00
2024-02-27T08:44:54.266Z,2280.00
2024-02-27T08:46:15.321Z,2276.00
2024-02-27T08:46:54.251Z,2204.00
2024-02-27T08:47:54.313Z,2240.00
2024-02-27T08:48:54.399Z,2212.00
2024-02-27T08:49:54.335Z,2220.00
2024-02-27T08:50:54.194Z,2176.00
2024-02-27T08:52:15.231Z,2144.00
2024-02-27T08:52:54.175Z,2112.00
2024-02-27T08:53:54.152Z,2396.00
2024-02-27T08:54:54.158Z,2304.00
2024-02-27T08:55:54.136Z,2316.00
2024-02-27T08:56:54.134Z,2384.00
2024-02-27T08:58:15.134Z,2496.00
2024-02-27T08:58:54.099Z,2536.00
2024-02-27T08:59:54.086Z,2780.00
2024-02-27T09:00:54.170Z,2700.00
2024-02-27T09:01:54.112Z,2404.00
2024-02-27T09:02:54.074Z,2512.00
2024-02-27T09:04:15.090Z,2440.00
2024-02-27T09:04:54.028Z,2652.00
2024-02-27T09:05:54.132Z,2564.00
2024-02-27T09:06:54.265Z,2700.00
2024-02-27T09:07:53.999Z,2992.00
2024-02-27T09:08:54.022Z,2952.00
2024-02-27T09:10:14.970Z,3052.00
2024-02-27T09:10:54.117Z,2940.00
2024-02-27T09:11:53.941Z,2904.00
2024-02-27T09:12:54.000Z,2964.00
2024-02-27T09:13:53.909Z,3056.00
2024-02-27T09:14:53.905Z,2944.00
2024-02-27T09:16:14.889Z,2964.00
2024-02-27T09:16:53.904Z,3064.00
2024-02-27T09:17:54.056Z,3112.00
2024-02-27T09:18:54.158Z,3236.00
2024-02-27T09:19:53.947Z,3388.00
2024-02-27T09:20:53.917Z,3156.00
2024-02-27T09:22:14.814Z,3092.00
2024-02-27T09:22:53.811Z,3160.00
2024-02-27T09:23:53.825Z,3368.00
2024-02-27T09:24:53.780Z,3520.00
2024-02-27T09:25:53.790Z,3516.00
2024-02-27T09:26:53.757Z,3548.00
2024-02-27T09:28:14.955Z,3892.00
2024-02-27T09:28:53.762Z,3904.00
2024-02-27T09:29:53.721Z,3920.00
2024-02-27T09:30:53.786Z,3344.00
2024-02-27T09:31:53.701Z,3244.00
2024-02-27T09:32:53.750Z,3580.00
2024-02-27T09:34:14.736Z,3516.00
2024-02-27T09:34:53.809Z,3460.00
2024-02-27T09:35:53.648Z,3320.00
2024-02-27T09:36:53.692Z,3264.00
2024-02-27T09:37:56.787Z,3700.00
2024-02-27T09:38:53.618Z,4076.00
2024-02-27T09:40:14.620Z,4160.00
2024-02-27T09:40:53.591Z,3780.00
2024-02-27T09:41:53.577Z,3932.00
2024-02-27T09:42:53.656Z,3852.00
2024-02-27T09:43:53.561Z,3956.00
2024-02-27T09:44:53.554Z,3884.00
2024-02-27T09:46:14.526Z,3648.00
2024-02-27T09:46:53.534Z,4128.00
2024-02-27T09:47:53.618Z,3816.00
2024-02-27T09:48:53.583Z,4100.00
2024-02-27T09:49:53.598Z,4664.00
2024-02-27T09:50:53.468Z,3916.00
2024-02-27T09:52:14.464Z,3632.00
2024-02-27T09:52:53.651Z,3444.00
2024-02-27T09:53:53.433Z,3508.00
2024-02-27T09:54:53.437Z,3112.00
2024-02-27T09:55:53.419Z,2832.00
2024-02-27T09:56:53.407Z,2736.00
2024-02-27T09:58:14.484Z,2832.00
2024-02-27T09:58:53.405Z,2800.00
2024-02-27T09:59:53.368Z,2748.00
2024-02-27T10:00:53.477Z,2948.00
2024-02-27T10:01:53.508Z,2736.00
2024-02-27T10:02:53.411Z,2884.00
2024-02-27T10:04:14.553Z,2960.00
2024-02-27T10:04:53.315Z,2752.00
2024-02-27T10:05:53.377Z,3028.00
2024-02-27T10:06:53.428Z,2984.00
2024-02-27T10:07:53.305Z,2876.00
2024-02-27T10:08:53.275Z,2944.00
2024-02-27T10:10:14.265Z,2824.00
2024-02-27T10:10:53.256Z,2900.00
2024-02-27T10:11:53.238Z,2964.00
2024-02-27T10:12:53.215Z,3332.00
2024-02-27T10:13:53.216Z,3156.00
2024-02-27T10:14:53.189Z,2688.00
2024-02-27T10:16:14.194Z,3132.00
2024-02-27T10:16:53.488Z,3140.00
2024-02-27T10:17:53.271Z,3004.00
2024-02-27T10:18:53.273Z,2664.00
2024-02-27T10:19:53.331Z,2740.00
2024-02-27T10:20:53.129Z,2940.00
2024-02-27T10:22:14.121Z,2860.00
2024-02-27T10:22:53.093Z,3100.00
2024-02-27T10:23:53.086Z,3320.00
2024-02-27T10:24:53.070Z,3220.00
2024-02-27T10:25:53.064Z,3164.00
2024-02-27T10:26:53.054Z,3212.00
2024-02-27T10:28:14.044Z,3252.00
2024-02-27T10:28:53.027Z,3352.00
2024-02-27T10:29:53.009Z,3600.00
2024-02-27T10:30:52.996Z,3960.00
2024-02-27T10:31:53.003Z,3816.00
2024-02-27T10:32:53.088Z,4080.00
2024-02-27T10:34:14.178Z,4424.00
2024-02-27T10:34:53.262Z,4400.00
2024-02-27T10:35:53.008Z,4020.00
2024-02-27T10:36:53.005Z,3456.00
2024-02-27T10:37:52.921Z,3380.00
2024-02-27T10:38:52.903Z,3024.00
2024-02-27T10:40:14.024Z,3036.00
2024-02-27T10:40:52.885Z,2956.00
2024-02-27T10:41:52.886Z,3068.00
2024-02-27T10:42:52.885Z,3072.00
2024-02-27T10:43:55.319Z,3140.00
2024-02-27T10:44:52.840Z,3436.00
2024-02-27T10:46:15.056Z,3172.00
2024-02-27T10:46:52.845Z,3052.00
2024-02-27T10:47:52.821Z,3476.00
2024-02-27T10:48:52.942Z,3636.00
2024-02-27T10:49:52.879Z,3488.00
2024-02-27T10:50:52.795Z,3592.00
2024-02-27T10:52:13.770Z,4080.00
2024-02-27T10:52:52.755Z,4260.00
2024-02-27T10:53:52.798Z,3984.00
2024-02-27T10:54:52.761Z,4440.00
2024-02-27T10:55:52.762Z,4664.00
2024-02-27T10:56:52.720Z,4544.00
2024-02-27T10:58:13.703Z,4300.00
2024-02-27T10:58:52.677Z,5032.00
2024-02-27T10:59:52.666Z,4996.00
2024-02-27T11:00:52.708Z,4504.00
2024-02-27T11:01:52.692Z,4552.00
2024-02-27T11:02:52.707Z,4676.00
2024-02-27T11:04:13.628Z,5172.00
2024-02-27T11:04:52.717Z,6048.00
2024-02-27T11:05:52.655Z,5600.00
2024-02-27T11:06:52.726Z,5896.00
2024-02-27T11:07:52.609Z,5956.00
2024-02-27T11:08:52.559Z,5444.00
2024-02-27T11:10:13.563Z,5408.00
2024-02-27T11:10:52.588Z,5524.00
2024-02-27T11:11:52.532Z,5496.00
2024-02-27T11:12:52.557Z,5288.00
2024-02-27T11:13:52.521Z,5632.00
2024-02-27T11:14:52.490Z,5604.00
2024-02-27T11:16:13.488Z,5140.00
2024-02-27T11:16:52.486Z,5220.00
2024-02-27T11:17:52.503Z,5324.00
2024-02-27T11:18:52.535Z,5100.00
2024-02-27T11:19:52.491Z,5556.00
2024-02-27T11:20:52.419Z,5504.00
2024-02-27T11:22:13.434Z,5576.00
2024-02-27T11:22:52.410Z,5816.00
2024-02-27T11:23:52.392Z,5408.00
2024-02-27T11:24:52.450Z,5528.00
2024-02-27T11:25:52.371Z,5528.00
2024-02-27T11:26:52.365Z,5672.00
2024-02-27T11:28:13.421Z,6112.00
2024-02-27T11:28:52.332Z,6308.00
2024-02-27T11:29:52.327Z,6392.00
2024-02-27T11:30:52.362Z,6288.00
2024-02-27T11:31:52.311Z,6276.00
2024-02-27T11:32:52.354Z,5732.00
2024-02-27T11:34:13.376Z,5860.00
2024-02-27T11:34:52.584Z,6108.00
2024-02-27T11:35:52.267Z,6032.00
2024-02-27T11:36:52.327Z,6156.00
2024-02-27T11:37:52.258Z,6056.00
2024-02-27T11:38:52.245Z,5888.00
2024-02-27T11:40:13.229Z,6124.00
2024-02-27T11:40:52.295Z,5932.00
2024-02-27T11:41:52.199Z,5728.00
2024-02-27T11:42:52.208Z,5516.00
2024-02-27T11:43:52.183Z,5024.00
2024-02-27T11:44:52.165Z,5268.00
2024-02-27T11:46:13.163Z,5312.00
2024-02-27T11:46:52.173Z,5260.00
2024-02-27T11:47:52.238Z,5524.00
2024-02-27T11:48:52.250Z,5464.00
2024-02-27T11:49:52.196Z,5520.00
2024-02-27T11:50:52.104Z,5452.00
2024-02-27T11:52:13.088Z,5240.00
2024-02-27T11:52:52.077Z,4880.00
2024-02-27T11:53:52.098Z,4612.00
2024-02-27T11:54:52.078Z,5020.00
2024-02-27T11:55:52.071Z,5688.00
2024-02-27T11:56:52.067Z,5848.00
2024-02-27T11:58:13.042Z,5948.00
2024-02-27T11:58:52.005Z,5688.00
2024-02-27T11:59:51.994Z,6020.00
2024-02-27T12:00:52.462Z,6640.00
2024-02-27T12:01:52.001Z,6532.00
2024-02-27T12:02:51.969Z,5676.00
2024-02-27T12:04:13.021Z,5844.00
2024-02-27T12:04:52.081Z,5772.00
2024-02-27T12:05:51.946Z,5628.00
2024-02-27T12:06:52.410Z,5208.00
2024-02-27T12:07:51.957Z,4676.00
2024-02-27T12:08:51.896Z,4984.00
2024-02-27T12:10:12.914Z,5128.00
2024-02-27T12:10:51.895Z,5428.00
2024-02-27T12:11:51.859Z,5496.00
2024-02-27T12:12:51.886Z,5236.00
2024-02-27T12:13:51.840Z,5340.00
2024-02-27T12:14:51.904Z,5448.00
2024-02-27T12:16:12.828Z,5636.00
2024-02-27T12:16:51.824Z,6084.00
2024-02-27T12:17:51.838Z,5880.00
2024-02-27T12:18:51.895Z,5584.00
2024-02-27T12:19:51.904Z,5340.00
2024-02-27T12:20:51.789Z,5420.00
2024-02-27T12:22:12.755Z,5256.00
2024-02-27T12:22:51.764Z,5188.00
2024-02-27T12:23:51.739Z,4880.00
2024-02-27T12:24:51.798Z,5076.00
2024-02-27T12:25:51.709Z,5320.00
2024-02-27T12:26:51.810Z,5104.00
2024-02-27T12:28:12.704Z,4884.00
2024-02-27T12:28:51.747Z,4492.00
2024-02-27T12:29:51.828Z,4228.00
2024-02-27T12:30:51.840Z,4028.00
2024-02-27T12:31:51.690Z,3908.00
2024-02-27T12:32:51.749Z,4152.00
2024-02-27T12:34:12.748Z,4300.00
2024-02-27T12:34:51.771Z,4044.00
2024-02-27T12:35:51.606Z,3932.00
2024-02-27T12:36:51.636Z,3740.00
2024-02-27T12:37:51.580Z,3832.00
2024-02-27T12:38:51.570Z,3800.00
2024-02-27T12:40:12.572Z,3940.00